| Place | Name | Time | Raw score | Score |
|---|---|---|---|---|
| 1 | Predatory_Balloon | 1:24.58 | 1,000 | 316 |
| 2 | Mei Rummy-chan | 1:25.11 | 900 | 285 |
| 3 | Freud | 1:26.07 | 859 | 272 |
| 4 | Zany | 1:27.03 | 827 | 262 |
| 5 | Aiko | 1:27.27 | 800 | 253 |
| 6 | Waonder | 1:27.35 | 777 | 246 |
| 7 | Bridge | 1:28.46 | 756 | 239 |
| 8 | Kuzidas | 1:29.06 | 736 | 233 |
| 9 | Saph | 1:32.02 | 718 | 227 |
| 10 | PinesOfChaos | 1:33.93 | 700 | 221 |
| 11 | Natr | 1:36.12 | 684 | 216 |
| 12 | Jay2a | 1:37.31 | 669 | 212 |
| 13 | Thermos | 1:38.21 | 654 | 207 |
| 14 | slug ʕ●.●ʔ | 1:38.42 | 640 | 202 |
| 15 | SlowScan | 1:38.68 | 626 | 198 |
| 16 | Camel | 1:38.82 | 613 | 194 |
| 17 | cerberus❤ | 1:38.84 | 600 | 190 |
| 18 | levinv270 | 1:38.91 | 588 | 186 |
| 19 | i0nTempest | 1:38.94 | 576 | 182 |
| 20 | KingClockwork | 1:39.08 | 565 | 179 |
| 21 | Hotride | 1:39.17 | 553 | 175 |
| 22 | Kaliphear | 1:39.33 | 542 | 171 |
| 23 | Pelerin | 1:39.35 | 531 | 168 |
| 24 | onyxglow | 1:39.48 | 521 | 165 |
| 25 | Sidewinder Fang | 1:39.72 | 511 | 162 |
| 26 | neesh | 1:39.73 | 500 | 158 |
| 27 | Revan5678 | 1:39.77 | 491 | 155 |
| 28 | Oraz_17 | 1:39.98 | 481 | 152 |
| 29 | Sunchipp Games | 1:40.10 | 471 | 149 |
| 30 | Kinix | 1:40.12 | 462 | 146 |
| 31 | TP-N.co PC-118 B-10001110101 | 1:40.15 | 453 | 143 |
| 32 | DecoyofChivalry | 1:40.19 | 444 | 140 |
| 33 | Azure | 1:40.34 | 435 | 138 |
| 34 | Azure Zakura | 1:40.35 | 426 | 135 |
| 35 | Proxy | 1:40.37 | 417 | 132 |
| 36 | XiQu3sT | 1:40.44 | 409 | 129 |
| 37 | Minecraft-pro | 1:40.50 | 400 | 127 |
| 38 | Latapi | 1:40.67 | 392 | 124 |
| 38 | Fernan | 1:40.67 | 392 | 124 |
| 40 | Kibōchen | 1:40.82 | 376 | 119 |
| 40 | matheus paiva | 1:40.82 | 376 | 119 |
| 42 | SpyrouR | 1:41.06 | 360 | 114 |
| 43 | Gregg the Grim Reaper | 1:41.29 | 352 | 111 |
| 44 | EndlessGaming | 1:41.31 | 345 | 109 |
| 45 | fippo | 1:41.35 | 337 | 107 |
| 46 | Kate | 1:41.37 | 330 | 104 |
| 47 | Jacsn | 1:41.39 | 322 | 102 |
| 48 | ToyoColla | 1:41.43 | 315 | 100 |
| 49 | Thaumic | 1:41.47 | 308 | 97 |
| 50 | [RYC] Robin Yrvriff | 1:41.48 | 300 | 95 |
| 51 | Roboraser | 1:41.57 | 293 | 93 |
| 52 | JDthe3rd | 1:41.74 | 286 | 90 |
| 53 | Snipedog | 1:41.79 | 279 | 88 |
| 54 | DieselFace | 1:41.91 | 272 | 86 |
| 55 | DefenderOfHyrule | 1:41.97 | 266 | 84 |
| 56 | DasGerippe | 1:42.09 | 259 | 82 |
| 57 | EnVyUs- yng jit | 1:42.16 | 252 | 80 |
| 58 | Wolf Black | 1:42.19 | 246 | 78 |
| 59 | EleventyB | 1:42.22 | 239 | 76 |
| 60 | jason | 1:42.23 | 232 | 73 |
| 61 | TheMelonGod | 1:42.24 | 226 | 71 |
| 62 | Sayukki | 1:42.25 | 219 | 69 |
| 63 | Meda | 1:42.28 | 213 | 67 |
| 64 | seaseal | 1:42.36 | 207 | 65 |
| 65 | Abyss93 | 1:42.42 | 200 | 63 |
| 66 | Terrapin | 1:42.46 | 194 | 61 |
| 67 | eriyo | 1:42.49 | 188 | 59 |
| 68 | NUKA | 1:42.59 | 182 | 58 |
| 69 | LucasZPN | 1:42.77 | 176 | 56 |
| 70 | Sunnydan | 1:42.79 | 170 | 54 |
| 71 | XLgeneral | 1:42.96 | 164 | 52 |
| 71 | VI_fizz | 1:42.96 | 164 | 52 |
| 73 | GaiaGaiyus | 1:42.97 | 152 | 48 |
| 74 | Chronos | 1:43.07 | 146 | 46 |
| 75 | Ktee | 1:43.08 | 140 | 44 |
| 76 | TheEvilMidnightBomber | 1:43.28 | 134 | 42 |
| 77 | markschuurman1990 | 1:43.30 | 129 | 41 |
| 78 | burger | 1:43.33 | 123 | 39 |
| 79 | DANTABLACK | 1:43.43 | 117 | 37 |
| 80 | Jam0344 | 1:43.45 | 112 | 35 |
| 81 | ViryGo19 | 1:43.49 | 106 | 34 |
| 82 | Chaos Titan | 1:43.51 | 100 | 32 |
| 83 | LobaDK | 1:43.78 | 95 | 30 |
| 84 | Paparazzi | 1:43.91 | 89 | 28 |
| 85 | Alexa, analise a resenha | 1:44.02 | 84 | 27 |
| 86 | Maxter Max | 1:44.12 | 79 | 25 |
| 86 | AceArroww | 1:44.12 | 79 | 25 |
| 88 | krashy | 1:44.17 | 68 | 22 |
| 89 | CableBox64 | 1:44.23 | 62 | 20 |
| 90 | Dove Linen | 1:44.28 | 57 | 18 |
| 91 | GeorgieBoi | 1:44.30 | 52 | 16 |
| 92 | Sogram | 1:44.35 | 47 | 15 |
| 93 | heavy jumpscare | 1:44.54 | 41 | 13 |
| 94 | Benji | 1:44.60 | 36 | 11 |
| 95 | Dosilox | 1:44.70 | 31 | 10 |
| 96 | Windsjorn | 1:44.99 | 26 | 8 |
| 97 | Warriot | 1:45.02 | 21 | 7 |
| 98 | fentanyl lover <3 | 1:45.29 | 16 | 5 |
| 99 | Mîlchschnîtte | 1:45.38 | 11 | 3 |
| 100 | Overlord | 1:45.43 | 6 | 2 |
| 101 | exai | 1:45.50 | 0 | 0 |
| 102 | Schneidog | 1:45.89 | 0 | 0 |
| 103 | HollyPotato | 1:45.93 | 0 | 0 |
| 104 | toniqe53 | 1:46.01 | 0 | 0 |
| 105 | Thunderskull | 1:46.05 | 0 | 0 |
| 106 | Cyxxus | 1:46.13 | 0 | 0 |
| 107 | <color=#00c9ff>Sans | 1:46.29 | 0 | 0 |
| 108 | Red | 1:46.48 | 0 | 0 |
| 109 | femptocrisis | 1:46.55 | 0 | 0 |
| 110 | MAT D.R.⎛⎝≥⏝⏝≤⎠⎞ | 1:46.61 | 0 | 0 |
| 111 | Pclone501 | 1:46.85 | 0 | 0 |
| 112 | Dupol | 1:46.87 | 0 | 0 |
| 113 | Myogi Night | 1:46.94 | 0 | 0 |
| 114 | Nickel | 1:47.15 | 0 | 0 |
| 115 | Zarifi | 1:47.20 | 0 | 0 |
| 116 | Sky Captain | 1:47.29 | 0 | 0 |
| 117 | Dreigo | 1:47.52 | 0 | 0 |
| 118 | MyurrDurr | 1:47.72 | 0 | 0 |
| 119 | Annexuo | 1:48.20 | 0 | 0 |
| 120 | Bile | 1:48.31 | 0 | 0 |
| 121 | Darth Sand | 1:48.45 | 0 | 0 |
| 122 | BEPISMAN.exe | 1:48.53 | 0 | 0 |
| 123 | Barry snorevitch | 1:48.55 | 0 | 0 |
| 124 | Meridius_IX / Lucas | 1:48.77 | 0 | 0 |
| 125 | Topaz95 | 1:48.81 | 0 | 0 |
| 126 | Lud | Forest | 1:48.82 | 0 | 0 |
| 126 | Alex | 1:48.82 | 0 | 0 |
| 128 | Rusty | 1:48.85 | 0 | 0 |
| 129 | rbrules | 1:49.05 | 0 | 0 |
| 130 | Pryn | 1:49.07 | 0 | 0 |
| 131 | doomsday device | 1:49.09 | 0 | 0 |
| 132 | LOLO FAK | 1:49.27 | 0 | 0 |
| 132 | nrpsSword0 | 1:49.27 | 0 | 0 |
| 134 | NeonChaosAwoo | 1:49.40 | 0 | 0 |
| 135 | Hirochi | 1:49.57 | 0 | 0 |
| 136 | Tribow | 1:49.65 | 0 | 0 |
| 137 | Kypar | 1:49.88 | 0 | 0 |
| 138 | Kilika | 1:49.89 | 0 | 0 |
| 139 | Ryoteer | 1:50.12 | 0 | 0 |
| 140 | Ayre | 1:50.29 | 0 | 0 |
| 140 | lift your tail for me | 1:50.29 | 0 | 0 |
| 142 | Iris | 1:50.37 | 0 | 0 |
| 143 | Sniggles | 1:50.51 | 0 | 0 |
| 144 | Mr. Doggy | 1:50.56 | 0 | 0 |
| 145 | PineFreshGuy | 1:50.61 | 0 | 0 |
| 146 | Monument576 | 1:50.63 | 0 | 0 |
| 147 | Starkiller246 | 1:50.66 | 0 | 0 |
| 148 | XMD007 | 1:50.75 | 0 | 0 |
| 149 | Eagl3 | 1:50.76 | 0 | 0 |
| 150 | NePurple | 1:50.84 | 0 | 0 |
| 151 | Xandrak | 1:50.94 | 0 | 0 |
| 152 | Blu3 | 1:51.06 | 0 | 0 |
| 153 | Entropy can't catch me. | 1:51.08 | 0 | 0 |
| 153 | [MM] Vannevariable | 1:51.08 | 0 | 0 |
| 155 | Krogoth | 1:51.29 | 0 | 0 |
| 156 | Moonie | 1:51.30 | 0 | 0 |
| 157 | SaltedFork | 1:51.33 | 0 | 0 |
| 158 | Orion | 1:51.34 | 0 | 0 |
| 159 | Edragon13 | 1:51.47 | 0 | 0 |
| 160 | Чаечек ☂ | 1:51.50 | 0 | 0 |
| 161 | Crimson Blood | 1:51.63 | 0 | 0 |
| 162 | Sokkero | 1:51.77 | 0 | 0 |
| 163 | Jarminx | 1:52.42 | 0 | 0 |
| 164 | Quantum Glitch | 1:52.43 | 0 | 0 |
| 165 | Sev | 1:52.58 | 0 | 0 |
| 166 | Simon Evo | 1:52.78 | 0 | 0 |
| 167 | DamnedDeyvid | 1:52.80 | 0 | 0 |
| 168 | Syntax | 1:52.82 | 0 | 0 |
| 169 | Lunar Knight36 | 1:53.06 | 0 | 0 |
| 170 | SirDan | 1:53.38 | 0 | 0 |
| 171 | krizithy | 1:53.55 | 0 | 0 |
| 172 | Wolf | 1:53.58 | 0 | 0 |
| 173 | Raydee | 1:53.71 | 0 | 0 |
| 174 | TurboPasta | 1:53.77 | 0 | 0 |
| 175 | TheEPROM9 LaTeX | 1:53.83 | 0 | 0 |
| 176 | Livonius | 1:53.91 | 0 | 0 |
| 177 | Ebeta2 | 1:53.99 | 0 | 0 |
| 178 | Epsilon_Knight | 1:54.09 | 0 | 0 |
| 179 | pcl219 | 1:54.16 | 0 | 0 |
| 180 | Onneyon | 1:54.74 | 0 | 0 |
| 181 | DLanc | 1:54.84 | 0 | 0 |
| 181 | Pristine | 1:54.84 | 0 | 0 |
| 183 | SPEEDYSPEEDBOI | 1:54.95 | 0 | 0 |
| 184 | NEO Mystic | 1:55.03 | 0 | 0 |
| 185 | notguts | 1:55.13 | 0 | 0 |
| 186 | Rombommind | 1:55.15 | 0 | 0 |
| 187 | 1:55.16 | 0 | 0 | |
| 188 | Alistar | 1:55.17 | 0 | 0 |
| 189 | WiteNite | 1:55.30 | 0 | 0 |
| 190 | Legoyoda | 1:55.89 | 0 | 0 |
| 191 | FifteenBread | 1:55.99 | 0 | 0 |
| 192 | Eddie980® | 1:56.08 | 0 | 0 |
| 193 | Ruslan145 | 1:56.17 | 0 | 0 |
| 194 | Skrigar | 1:56.65 | 0 | 0 |
| 195 | [RC] | 1:56.76 | 0 | 0 |
| 196 | Jeats | 1:56.77 | 0 | 0 |
| 197 | Totally Not Hax | 1:57.07 | 0 | 0 |
| 198 | Negaprion | 1:57.13 | 0 | 0 |
| 199 | h | 1:57.15 | 0 | 0 |
| 200 | Frozen Bl00d | 1:57.17 | 0 | 0 |
| 201 | Hayden | 1:57.27 | 0 | 0 |
| 202 | Spoon | 1:57.40 | 0 | 0 |
| 203 | Spoiler Alert | 1:57.59 | 0 | 0 |
| 204 | BedrokiV | 1:57.84 | 0 | 0 |
| 205 | -DarkLlama- | 1:57.94 | 0 | 0 |
| 206 | Arriow | 1:57.97 | 0 | 0 |
| 206 | 🌺 CallMeAshley 🌺 | 1:57.97 | 0 | 0 |
| 208 | EzraW118 | 1:58.27 | 0 | 0 |
| 209 | sWilder9 | 1:58.29 | 0 | 0 |
| 210 | Expired | 1:58.40 | 0 | 0 |
| 211 | N3bula | 1:58.48 | 0 | 0 |
| 212 | Midnight | 1:58.51 | 0 | 0 |
| 213 | TinFoilMkIV | 1:58.52 | 0 | 0 |
| 214 | Casmo | 1:58.86 | 0 | 0 |
| 215 | Elfiann | 1:58.95 | 0 | 0 |
| 216 | Verendus | 1:59.02 | 0 | 0 |
| 217 | PotatoKneecap | 1:59.35 | 0 | 0 |
| 218 | ุ | 1:59.41 | 0 | 0 |
| 219 | Super_Shadow57 | 1:59.83 | 0 | 0 |
| 220 | Readek | 2:00.07 | 0 | 0 |
| 221 | Lémohn | 2:00.20 | 0 | 0 |
| 222 | tipek360 | 2:00.30 | 0 | 0 |
| 223 | JohnCorby | 2:00.41 | 0 | 0 |
| 224 | KOS | 2:00.43 | 0 | 0 |
| 225 | hrkrx | 2:00.47 | 0 | 0 |
| 226 | Voltaic | 2:00.50 | 0 | 0 |
| 227 | fffern | 2:00.76 | 0 | 0 |
| 228 | Domino | 2:00.95 | 0 | 0 |
| 229 | Chucho14YT | 2:01.31 | 0 | 0 |
| 230 | Feed The Fishes | 2:01.71 | 0 | 0 |
| 231 | TekuGen | 2:01.73 | 0 | 0 |
| 232 | Snerlop | 2:02.16 | 0 | 0 |
| 233 | Pairoba | 2:02.20 | 0 | 0 |
| 234 | Norz-Öril'Kern | 2:02.22 | 0 | 0 |
| 235 | Megamiguel3 | 2:02.33 | 0 | 0 |
| 236 | Razgriez | 2:02.51 | 0 | 0 |
| 237 | Kramatus | 2:02.65 | 0 | 0 |
| 238 | g●Sleep | 2:02.78 | 0 | 0 |
| 239 | pox | 2:03.03 | 0 | 0 |
| 240 | Cmacle | 2:03.09 | 0 | 0 |
| 241 | ShoobFloof22 | 2:03.26 | 0 | 0 |
| 242 | Magister Ludi | 2:03.36 | 0 | 0 |
| 243 | Diabetis4life | 2:03.67 | 0 | 0 |
| 244 | Ironman_2099 | 2:03.73 | 0 | 0 |
| 245 | Dropkick | 2:03.91 | 0 | 0 |
| 246 | JashinYoda | 2:04.53 | 0 | 0 |
| 246 | BigEnnn | 2:04.53 | 0 | 0 |
| 248 | snugglebottom | 2:04.55 | 0 | 0 |
| 249 | Mar_Veloz | 2:04.62 | 0 | 0 |
| 250 | Ryuki | 2:04.88 | 0 | 0 |
| 251 | Earthnuker | 2:04.97 | 0 | 0 |
| 252 | SneakySN | 2:05.74 | 0 | 0 |
| 253 | Crespojazzman | 2:05.85 | 0 | 0 |
| 254 | rezzonating | 2:06.01 | 0 | 0 |
| 255 | Midnight | 2:06.07 | 0 | 0 |
| 256 | Wahoo | 2:06.09 | 0 | 0 |
| 257 | Joakim230199 | 2:06.12 | 0 | 0 |
| 258 | OmNomPacman | 2:06.18 | 0 | 0 |
| 259 | ZephyrBlaze1 | 2:06.30 | 0 | 0 |
| 260 | rey-bukabuka | 2:06.42 | 0 | 0 |
| 261 | Mister JT | 2:06.45 | 0 | 0 |
| 262 | Tarant_Horton | 2:06.57 | 0 | 0 |
| 263 | Mr. 20k | 2:06.58 | 0 | 0 |
| 264 | Aspect_OwO | 2:06.60 | 0 | 0 |
| 265 | Noah | 2:06.69 | 0 | 0 |
| 266 | PlatinumAstra | 2:06.80 | 0 | 0 |
| 267 | EonShark | 2:06.86 | 0 | 0 |
| 268 | S.Kappelmann | 2:06.87 | 0 | 0 |
| 269 | PuddyKilla | 2:07.06 | 0 | 0 |
| 270 | bogassado | 2:07.13 | 0 | 0 |
| 271 | SW18 | 2:07.17 | 0 | 0 |
| 272 | Ultor | 2:07.19 | 0 | 0 |
| 273 | Chase | 2:07.32 | 0 | 0 |
| 274 | Hijacker02 | 2:07.47 | 0 | 0 |
| 275 | A very silly man indeed | 2:07.50 | 0 | 0 |
| 276 | BrandonK-TN | 2:07.70 | 0 | 0 |
| 277 | Battle Banana Chris Handsom | 2:07.76 | 0 | 0 |
| 278 | silversin33 | 2:07.78 | 0 | 0 |
| 279 | Prof. Pinwheel | 2:07.90 | 0 | 0 |
| 280 | Blushy Wushy | 2:08.42 | 0 | 0 |
| 281 | Achiro | 2:08.54 | 0 | 0 |
| 282 | Vert | 2:08.58 | 0 | 0 |
| 283 | Plasmawario | 2:08.72 | 0 | 0 |
| 284 | BBQ-Bacon-Pizza | 2:09.03 | 0 | 0 |
| 285 | YoloMoth | 2:09.08 | 0 | 0 |
| 285 | Slender19rus | 2:09.08 | 0 | 0 |
| 287 | arkhayem | 2:09.37 | 0 | 0 |
| 288 | JayBoneJay | 2:09.56 | 0 | 0 |
| 289 | Combat Corpse | 2:09.80 | 0 | 0 |
| 290 | Bob Ross | 2:09.95 | 0 | 0 |
| 291 | LeFluffySquirrel | 2:10.06 | 0 | 0 |
| 292 | A Flying Sloth | 2:10.57 | 0 | 0 |
| 293 | Haferkuchen | 2:10.88 | 0 | 0 |
| 294 | Dorey348 | 2:10.91 | 0 | 0 |
| 295 | Loreckine | 2:11.07 | 0 | 0 |
| 296 | GrendarFlynt | 2:11.25 | 0 | 0 |
| 297 | Holo | 2:11.45 | 0 | 0 |
| 298 | zombieassaultman | 2:11.86 | 0 | 0 |
| 299 | Burden, The Red | 2:11.95 | 0 | 0 |
| 300 | RatziFatzi | 2:12.06 | 0 | 0 |
| 301 | koolaroo | 2:12.15 | 0 | 0 |
| 302 | DOOM | 2:12.19 | 0 | 0 |
| 303 | C4tch | 2:12.46 | 0 | 0 |
| 304 | khrisround2 | 2:12.89 | 0 | 0 |
| 305 | Spacefarer | 2:13.00 | 0 | 0 |
| 306 | DEMON | 2:13.11 | 0 | 0 |
| 307 | Nick | 2:13.32 | 0 | 0 |
| 308 | Kobayen | 2:13.63 | 0 | 0 |
| 309 | Hackerman 💻 | 2:13.77 | 0 | 0 |
| 310 | ElHombre86 | 2:13.90 | 0 | 0 |
| 311 | Pandasaoul | 2:13.98 | 0 | 0 |
| 312 | russ117 | 2:14.60 | 0 | 0 |
| 313 | Ivoryshovel | 2:14.63 | 0 | 0 |
| 314 | Nanohm The Protogen | 2:14.66 | 0 | 0 |
| 315 | Eight fucking bears | 2:14.71 | 0 | 0 |
| 316 | Tuli | 2:14.79 | 0 | 0 |
| 317 | Myha | 2:15.50 | 0 | 0 |
| 318 | trumpetkid14 | 2:15.54 | 0 | 0 |
| 318 | Dyltra | 2:15.54 | 0 | 0 |
| 320 | Ninja Squirel | 2:15.77 | 0 | 0 |
| 321 | Osbob | 2:16.22 | 0 | 0 |
| 322 | Lliane | 2:16.26 | 0 | 0 |
| 323 | Spotfire | 2:16.53 | 0 | 0 |
| 324 | Suburban Wolf Dad | 2:16.97 | 0 | 0 |
| 325 | Nixill | 2:17.03 | 0 | 0 |
| 326 | GTNeon | 2:17.13 | 0 | 0 |
| 327 | LachenJager | 2:17.50 | 0 | 0 |
| 328 | Well Shit | 2:17.63 | 0 | 0 |
| 329 | Arca | 2:18.18 | 0 | 0 |
| 330 | Jos | 2:18.37 | 0 | 0 |
| 331 | Iwak | 2:18.62 | 0 | 0 |
| 332 | 狼旅団 ( Jin-Roh ) | 2:18.67 | 0 | 0 |
| 333 | Lunazoin | 2:18.75 | 0 | 0 |
| 334 | CrazyMaurice120 | 2:19.44 | 0 | 0 |
| 335 | Agent Tahu | 2:20.16 | 0 | 0 |
| 336 | FabioTheTurtle | 2:20.35 | 0 | 0 |
| 337 | Auston777 | 2:20.58 | 0 | 0 |
| 338 | SIGSTACKFAULT | 2:20.68 | 0 | 0 |
| 339 | XHeroZombieX | 2:20.92 | 0 | 0 |
| 340 | noodle | 2:21.15 | 0 | 0 |
| 341 | CeruleanAzura | 2:21.45 | 0 | 0 |
| 342 | jetknife | 2:21.46 | 0 | 0 |
| 343 | Shinrararara | 2:21.62 | 0 | 0 |
| 344 | Dusty | 2:21.69 | 0 | 0 |
| 345 | Gidan | 2:21.76 | 0 | 0 |
| 346 | RedRiotRoss | 2:21.83 | 0 | 0 |
| 347 | hoppersthree | 2:22.18 | 0 | 0 |
| 348 | Farukon | 2:22.25 | 0 | 0 |
| 349 | ShadeSlayer24 | 2:22.32 | 0 | 0 |
| 350 | 「Starlight Moonbow」 | 2:22.33 | 0 | 0 |
| 351 | Шоколадка:) | 2:22.36 | 0 | 0 |
| 352 | Racheecha | 2:22.55 | 0 | 0 |
| 353 | JeffTheBruh | 2:22.57 | 0 | 0 |
| 354 | lolpokey | 2:22.95 | 0 | 0 |
| 355 | enerszon | 2:22.97 | 0 | 0 |
| 356 | LoopMix | 2:23.37 | 0 | 0 |
| 357 | MIRIK | 2:23.39 | 0 | 0 |
| 358 | gnss- | 2:23.56 | 0 | 0 |
| 359 | Puttonyos Lajos | 2:24.00 | 0 | 0 |
| 360 | blobjim | 2:24.80 | 0 | 0 |
| 361 | Your Local Jordan | 2:24.94 | 0 | 0 |
| 362 | Тайно дёргал | 2:25.06 | 0 | 0 |
| 363 | Seshiruseth | 2:25.20 | 0 | 0 |
| 364 | Brianag010 | 2:25.39 | 0 | 0 |
| 365 | [deleted] | 2:25.51 | 0 | 0 |
| 366 | autistic pringle | 2:25.69 | 0 | 0 |
| 367 | yuri gagarin's creamy interior | 2:26.06 | 0 | 0 |
| 368 | Lognus | 2:26.24 | 0 | 0 |
| 369 | Uranos | 2:26.43 | 0 | 0 |
| 370 | TutitoZilean | 2:26.49 | 0 | 0 |
| 371 | Creepersrock24Gaming | 2:27.05 | 0 | 0 |
| 372 | BluntButters | 2:27.28 | 0 | 0 |
| 373 | rts | 2:27.35 | 0 | 0 |
| 374 | 3nvy | 2:27.67 | 0 | 0 |
| 375 | raphicapo | 2:27.73 | 0 | 0 |
| 376 | siafa | 2:27.83 | 0 | 0 |
| 377 | Archi | 2:28.19 | 0 | 0 |
| 378 | potion | 2:28.37 | 0 | 0 |
| 379 | Sora | 2:28.68 | 0 | 0 |
| 380 | Sky_ | 2:29.37 | 0 | 0 |
| 381 | Ember | 2:29.67 | 0 | 0 |
| 382 | Alikey | 2:30.20 | 0 | 0 |
| 383 | Not_Izaah | 2:30.60 | 0 | 0 |
| 384 | SmokedScreen | 2:30.96 | 0 | 0 |
| 385 | titlewave91 | 2:31.38 | 0 | 0 |
| 386 | Aastran | 2:31.43 | 0 | 0 |
| 387 | Citizen Light | 2:31.64 | 0 | 0 |
| 388 | nthn* | 2:31.67 | 0 | 0 |
| 389 | Host | 2:31.77 | 0 | 0 |
| 390 | The Usual Suspect | 2:31.91 | 0 | 0 |
| 391 | NotNotPancake | 2:32.06 | 0 | 0 |
| 392 | Giant From The East | 2:32.30 | 0 | 0 |
| 393 | Guterson | 2:32.50 | 0 | 0 |
| 394 | re.ignition | 2:32.51 | 0 | 0 |
| 395 | Yang Pjoter II | 2:32.76 | 0 | 0 |
| 396 | < blank > | 2:33.24 | 0 | 0 |
| 397 | KaMozo25 | 2:33.32 | 0 | 0 |
| 398 | Monark10 | 2:33.64 | 0 | 0 |
| 399 | Breno_SO | 2:33.71 | 0 | 0 |
| 400 | FEARSlayer01 | 2:34.12 | 0 | 0 |
| 401 | Skrall' | 2:34.13 | 0 | 0 |
| 402 | Samn | 2:35.11 | 0 | 0 |
| 403 | Xavi Wheels | 2:35.16 | 0 | 0 |
| 404 | REHERC | 2:35.44 | 0 | 0 |
| 405 | 76561198336712607 | 2:35.50 | 0 | 0 |
| 406 | AyyLmeow | 2:35.56 | 0 | 0 |
| 407 | Adrimg_rider | 2:35.95 | 0 | 0 |
| 408 | Charlotte | 2:36.39 | 0 | 0 |
| 409 | 321longshot | 2:37.06 | 0 | 0 |
| 410 | FOG BLAST THE VENT CORE | 2:37.33 | 0 | 0 |
| 411 | GD Taylor | 2:37.67 | 0 | 0 |
| 412 | Nadoc | 2:37.82 | 0 | 0 |
| 413 | BuzZoiD | 2:37.92 | 0 | 0 |
| 414 | _BlueScorpion_ | 2:39.84 | 0 | 0 |
| 415 | Hanimani2 | 2:40.46 | 0 | 0 |
| 416 | _olivia | 2:41.31 | 0 | 0 |
| 417 | BlacKat | 2:41.68 | 0 | 0 |
| 418 | LelouchXV3 | 2:41.82 | 0 | 0 |
| 419 | Autism M5 Max | 2:41.88 | 0 | 0 |
| 420 | JamesArk | 2:42.70 | 0 | 0 |
| 421 | Traetors | 2:42.85 | 0 | 0 |
| 422 | The Average Bluejay | 2:43.02 | 0 | 0 |
| 423 | rocmanx654 | 2:43.60 | 0 | 0 |
| 424 | Lazarus | 2:44.04 | 0 | 0 |
| 425 | Raynland McNuggets | 2:45.20 | 0 | 0 |
| 426 | Roy_ | 2:45.23 | 0 | 0 |
| 427 | Frozen Dino | 2:46.24 | 0 | 0 |
| 428 | SmittenPuppet | 2:46.71 | 0 | 0 |
| 429 | RPsonicfan | 2:47.28 | 0 | 0 |
| 430 | kill everyone and leave | 2:47.31 | 0 | 0 |
| 431 | petabyteag | 2:49.28 | 0 | 0 |
| 432 | GameStarLion | 2:50.03 | 0 | 0 |
| 433 | LWS | 2:50.55 | 0 | 0 |
| 434 | Draco | 2:51.00 | 0 | 0 |
| 435 | Roxas | 2:52.48 | 0 | 0 |
| 436 | Piiec | 2:53.74 | 0 | 0 |
| 437 | KaBeu | 2:54.59 | 0 | 0 |
| 438 | GhostlyCryptid | 2:55.01 | 0 | 0 |
| 439 | [NR] Miyu012 | 2:55.14 | 0 | 0 |
| 440 | tekugamer2020 | 2:55.26 | 0 | 0 |
| 441 | Spearmint | 2:56.30 | 0 | 0 |
| 442 | René | 2:56.80 | 0 | 0 |
| 443 | chillaGorilla | 2:56.99 | 0 | 0 |
| 444 | frel | 2:58.02 | 0 | 0 |
| 445 | momased | 2:58.10 | 0 | 0 |
| 446 | FireGirl | 3:01.62 | 0 | 0 |
| 447 | Tybalt the First | 3:01.70 | 0 | 0 |
| 448 | skuzzzy | 3:02.25 | 0 | 0 |
| 449 | Loys Nuva | 3:02.71 | 0 | 0 |
| 450 | Dats1k | 3:06.28 | 0 | 0 |
| 451 | Lee | 3:07.56 | 0 | 0 |
| 452 | Mossy Shush | 3:08.81 | 0 | 0 |
| 453 | GAMEMASTER-THX | 3:10.90 | 0 | 0 |
| 454 | Astron | 3:14.69 | 0 | 0 |
| 455 | BioPaw | 3:15.04 | 0 | 0 |
| 456 | halohotrod | 3:15.16 | 0 | 0 |
| 457 | Hawke | 3:16.38 | 0 | 0 |
| 458 | JacksterBro | 3:22.12 | 0 | 0 |
| 459 | 25$ max | 3:22.19 | 0 | 0 |
| 460 | .TRL AlnDeron | 3:23.04 | 0 | 0 |
| 461 | SOLäRK | 3:26.70 | 0 | 0 |
| 462 | Pinguin | 3:32.19 | 0 | 0 |
| 463 | acerisodd | 3:37.30 | 0 | 0 |
| 464 | meziter260 | 3:52.05 | 0 | 0 |
| 465 | dannyburke03 | 3:55.10 | 0 | 0 |
| 466 | Phil | 4:00.44 | 0 | 0 |
| 467 | Veloxceleron | 4:01.64 | 0 | 0 |
| 468 | calne | 4:03.99 | 0 | 0 |
| 469 | Saujii2 | 4:19.75 | 0 | 0 |
| 470 | Demipixels | 4:20.22 | 0 | 0 |
| 471 | EmeraldSlash | 4:20.49 | 0 | 0 |
| 472 | DrakZor | 4:21.77 | 0 | 0 |
| 473 | Zeo | 4:24.72 | 0 | 0 |
| 474 | RocketLauncherMan | 4:32.07 | 0 | 0 |
| 475 | GlacialMaw | 4:43.35 | 0 | 0 |
| 476 | <3 | Sock ☮ | 4:47.29 | 0 | 0 |
| 477 | Draconix36 | 5:08.80 | 0 | 0 |
| 478 | sevenofnone | 5:15.32 | 0 | 0 |
| 479 | Trillico | 5:15.88 | 0 | 0 |
| 480 | axelmorin78 | 5:20.08 | 0 | 0 |
| 481 | DobreBobre | 5:34.15 | 0 | 0 |
| 482 | Intro5pectre | 5:53.73 | 0 | 0 |
| 483 | TartanKitty773 | 5:53.89 | 0 | 0 |
| 484 | diktator | 6:58.65 | 0 | 0 |
| 485 | PedroelCanguro | 7:36.52 | 0 | 0 |
HoldGrip